createdAt,value
2023-06-23T00:02:18.518Z,99182.94
2023-06-23T00:04:45.233Z,99161.34
2023-06-23T00:07:11.896Z,99169.38
2023-06-23T00:09:38.763Z,99165.41
2023-06-23T00:12:09.240Z,99162.22
2023-06-23T00:14:36.222Z,99152.06
2023-06-23T00:17:03.925Z,99152.75
2023-06-23T00:19:32.942Z,99146.81
2023-06-23T00:21:59.959Z,99138.44
2023-06-23T00:24:28.249Z,99121.47
2023-06-23T00:26:55.027Z,99118.59
2023-06-23T00:29:22.042Z,99109.56
2023-06-23T00:31:50.688Z,99106.03
2023-06-23T00:34:17.633Z,99084.56
2023-06-23T00:36:44.323Z,99060.22
2023-06-23T00:39:11.058Z,99052.84
2023-06-23T00:41:37.729Z,99030.03
2023-06-23T00:44:08.239Z,99016.59
2023-06-23T00:46:35.128Z,99003.94
2023-06-23T00:49:02.973Z,98998.66
2023-06-23T00:51:31.539Z,98982.91
2023-06-23T00:53:59.443Z,98956.81
2023-06-23T00:56:26.622Z,98934.69
2023-06-23T00:58:54.197Z,98926.97
2023-06-23T01:01:21.517Z,98925.75
2023-06-23T01:03:48.263Z,98922.09
2023-06-23T01:06:38.560Z,98934.97
2023-06-23T01:09:17.359Z,98924.97
2023-06-23T01:12:13.284Z,98917.38
2023-06-23T01:14:57.850Z,98921.47
2023-06-23T01:17:34.481Z,98911.91
2023-06-23T01:20:23.247Z,98909.34
2023-06-23T01:23:17.317Z,98901.88
2023-06-23T01:25:56.312Z,98889.97
2023-06-23T01:28:31.980Z,98867.16
2023-06-23T01:31:03.597Z,98844.56
2023-06-23T01:33:43.060Z,98848.56
2023-06-23T01:36:19.421Z,98886.09
2023-06-23T01:38:51.485Z,98925.53
2023-06-23T01:41:25.090Z,98936.66
2023-06-23T01:43:56.893Z,98947.13
2023-06-23T01:46:35.872Z,98952.84
2023-06-23T01:49:11.501Z,98941.59
2023-06-23T01:51:47.820Z,98915.38
2023-06-23T01:54:17.455Z,98914.47
2023-06-23T01:56:45.065Z,98906.56
2023-06-23T01:59:14.061Z,98906.88
2023-06-23T02:01:44.027Z,98908.84
2023-06-23T02:04:12.679Z,98900.16
2023-06-23T02:06:45.463Z,98909.41
2023-06-23T02:09:18.294Z,98932.53
2023-06-23T02:11:46.819Z,98939.91
2023-06-23T02:14:15.559Z,98956.44
2023-06-23T02:16:43.800Z,98975.06
2023-06-23T02:19:12.726Z,98977.56
2023-06-23T02:21:40.410Z,98986.06
2023-06-23T02:24:10.690Z,98994.88
2023-06-23T02:26:40.040Z,99005.00
2023-06-23T02:29:10.389Z,98999.72
2023-06-23T02:31:37.639Z,99006.53
2023-06-23T02:34:04.673Z,98996.63
2023-06-23T02:36:36.809Z,98995.31
2023-06-23T02:39:07.180Z,99012.06
2023-06-23T02:41:36.900Z,99010.31
2023-06-23T02:44:12.718Z,99000.53
2023-06-23T02:46:43.786Z,99011.00
2023-06-23T02:49:16.062Z,99014.50
2023-06-23T02:51:46.368Z,99000.31
2023-06-23T02:54:17.818Z,98993.81
2023-06-23T02:56:47.391Z,99004.16
2023-06-23T02:59:19.257Z,99012.19
2023-06-23T03:01:49.789Z,99016.38
2023-06-23T03:04:17.767Z,99031.81
2023-06-23T03:06:45.289Z,99034.56
2023-06-23T03:09:12.490Z,99043.81
2023-06-23T03:11:39.614Z,99041.81
2023-06-23T03:14:08.061Z,99048.22
2023-06-23T03:16:50.477Z,99049.44
2023-06-23T03:19:38.618Z,99033.22
2023-06-23T03:22:15.293Z,99027.84
2023-06-23T03:24:45.820Z,99041.38
2023-06-23T03:27:14.626Z,99038.28
2023-06-23T03:29:47.369Z,99028.94
2023-06-23T03:32:23.485Z,99018.03
2023-06-23T03:34:57.695Z,99015.50
2023-06-23T03:37:28.172Z,99009.97
2023-06-23T03:40:00.244Z,99010.63
2023-06-23T03:42:28.779Z,99018.00
2023-06-23T03:45:00.535Z,99022.09
2023-06-23T03:47:30.702Z,99024.75
2023-06-23T03:50:02.230Z,99014.03
2023-06-23T03:52:29.877Z,99001.69
2023-06-23T03:54:58.363Z,99005.66
2023-06-23T03:57:30.400Z,98995.44
2023-06-23T03:59:58.699Z,98993.34
2023-06-23T04:02:27.312Z,98991.25
2023-06-23T04:04:57.051Z,98998.19
2023-06-23T04:07:27.729Z,99009.97
2023-06-23T04:09:56.602Z,99023.06
2023-06-23T04:12:24.497Z,99038.69
2023-06-23T04:14:54.182Z,99043.03
2023-06-23T04:17:27.052Z,99034.00
2023-06-23T04:19:59.838Z,99023.75
2023-06-23T04:22:32.051Z,99004.66
2023-06-23T04:25:00.814Z,99008.66
2023-06-23T04:27:29.749Z,99017.81
2023-06-23T04:29:58.985Z,99016.13
2023-06-23T04:32:26.068Z,99025.44
2023-06-23T04:34:52.835Z,99026.31
2023-06-23T04:37:27.814Z,99026.06
2023-06-23T04:40:00.669Z,99035.53
2023-06-23T04:42:43.032Z,99034.53
2023-06-23T04:45:15.030Z,99032.22
2023-06-23T04:47:44.734Z,99042.16
2023-06-23T04:50:15.299Z,99034.66
2023-06-23T04:52:47.732Z,99030.03
2023-06-23T04:55:16.504Z,99039.50
2023-06-23T04:57:46.407Z,99037.06
2023-06-23T05:00:17.991Z,99041.69
2023-06-23T05:02:49.584Z,99054.78
2023-06-23T05:05:24.692Z,99053.34
2023-06-23T05:07:53.423Z,99057.72
2023-06-23T05:10:21.376Z,99054.50
2023-06-23T05:12:50.405Z,99050.03
2023-06-23T05:15:20.137Z,99054.31
2023-06-23T05:17:54.551Z,99045.13
2023-06-23T05:20:23.915Z,99052.25
2023-06-23T05:22:52.719Z,99054.31
2023-06-23T05:25:21.182Z,99065.88
2023-06-23T05:27:53.381Z,99057.59
2023-06-23T05:30:21.708Z,99063.84
2023-06-23T05:32:50.425Z,99065.16
2023-06-23T05:35:18.990Z,99062.72
2023-06-23T05:37:47.458Z,99068.03
2023-06-23T05:40:15.664Z,99073.78
2023-06-23T05:42:43.593Z,99069.94
2023-06-23T05:45:12.439Z,99077.38
2023-06-23T05:47:50.258Z,99067.63
2023-06-23T05:50:27.613Z,99057.34
2023-06-23T05:53:16.470Z,99055.63
2023-06-23T05:56:03.375Z,99054.59
2023-06-23T05:58:35.367Z,99058.38
2023-06-23T06:01:08.431Z,99054.88
2023-06-23T06:03:39.195Z,99058.28
2023-06-23T06:06:07.970Z,99049.13
2023-06-23T06:08:37.507Z,99048.72
2023-06-23T06:11:06.090Z,99049.97
2023-06-23T06:13:36.767Z,99056.28
2023-06-23T06:16:05.824Z,99055.34
2023-06-23T06:18:35.227Z,99060.53
2023-06-23T06:21:03.216Z,99064.72
2023-06-23T06:23:31.209Z,99068.78
2023-06-23T06:25:59.377Z,99060.38
2023-06-23T06:28:28.392Z,99056.28
2023-06-23T06:30:58.394Z,99059.16
2023-06-23T06:33:26.162Z,99059.72
2023-06-23T06:35:53.843Z,99066.34
2023-06-23T06:38:23.001Z,99064.34
2023-06-23T06:40:54.497Z,99061.03
2023-06-23T06:43:21.294Z,99058.91
2023-06-23T06:45:51.408Z,99059.94
2023-06-23T06:48:20.653Z,99053.22
2023-06-23T06:50:48.130Z,99062.25
2023-06-23T06:53:15.700Z,99060.69
2023-06-23T06:55:43.150Z,99065.25
2023-06-23T06:58:10.697Z,99061.94
2023-06-23T07:00:37.770Z,99055.28
2023-06-23T07:03:05.637Z,99053.03
2023-06-23T07:05:32.336Z,99054.53
2023-06-23T07:07:59.274Z,99059.59
2023-06-23T07:10:25.943Z,99063.13
2023-06-23T07:12:52.595Z,99057.75
2023-06-23T07:15:19.274Z,99059.16
2023-06-23T07:17:46.036Z,99058.28
2023-06-23T07:20:13.270Z,99060.88
2023-06-23T07:22:41.345Z,99053.13
2023-06-23T07:25:08.349Z,99068.50
2023-06-23T07:27:36.581Z,99070.50
2023-06-23T07:30:04.977Z,99071.81
2023-06-23T07:32:31.990Z,99079.66
2023-06-23T07:34:58.709Z,99081.63
2023-06-23T07:37:25.343Z,99080.16
2023-06-23T07:39:51.936Z,99079.66
2023-06-23T07:42:18.585Z,99079.19
2023-06-23T07:44:45.864Z,99080.25
2023-06-23T07:47:15.351Z,99078.72
2023-06-23T07:49:42.314Z,99092.44
2023-06-23T07:52:11.430Z,99088.28
2023-06-23T07:54:40.527Z,99090.53
2023-06-23T07:57:09.563Z,99093.19
2023-06-23T07:59:36.392Z,99088.72
2023-06-23T08:02:04.837Z,99091.50
2023-06-23T08:04:31.578Z,99098.41
2023-06-23T08:06:58.435Z,99099.72
2023-06-23T08:09:25.125Z,99103.19
2023-06-23T08:11:51.681Z,99111.22
2023-06-23T08:14:18.354Z,99112.50
2023-06-23T08:16:45.050Z,99112.19
2023-06-23T08:19:11.698Z,99111.53
2023-06-23T08:21:38.593Z,99107.25
2023-06-23T08:24:05.740Z,99120.31
2023-06-23T08:26:33.323Z,99122.97
2023-06-23T08:29:00.022Z,99122.69
2023-06-23T08:31:26.690Z,99129.19
2023-06-23T08:33:53.321Z,99132.28
2023-06-23T08:36:20.167Z,99138.47
2023-06-23T08:38:46.814Z,99129.44
2023-06-23T08:41:13.569Z,99140.91
2023-06-23T08:43:46.143Z,99151.84
2023-06-23T08:46:15.966Z,99152.28
2023-06-23T08:48:52.254Z,99154.28
2023-06-23T08:51:19.128Z,99155.78
2023-06-23T08:53:46.818Z,99159.63
2023-06-23T08:56:15.629Z,99160.38
2023-06-23T08:58:42.793Z,99171.16
2023-06-23T09:01:09.581Z,99164.22
2023-06-23T09:03:36.517Z,99166.69
2023-06-23T09:06:03.472Z,99166.63
2023-06-23T09:08:31.216Z,99171.38
2023-06-23T09:10:57.968Z,99177.84
2023-06-23T09:13:30.698Z,99179.56
2023-06-23T09:16:03.934Z,99189.06
2023-06-23T09:18:35.194Z,99188.16
2023-06-23T09:21:03.916Z,99179.22
2023-06-23T09:23:32.465Z,99184.59
2023-06-23T09:26:00.749Z,99178.81
2023-06-23T09:28:37.411Z,99180.63
2023-06-23T09:31:13.089Z,99194.00
2023-06-23T09:33:54.641Z,99188.97
2023-06-23T09:36:21.450Z,99191.34
2023-06-23T09:38:50.469Z,99198.50
2023-06-23T09:41:20.234Z,99192.84
2023-06-23T09:43:51.986Z,99210.03
2023-06-23T09:46:21.468Z,99198.06
2023-06-23T09:48:50.419Z,99205.72
2023-06-23T09:51:20.145Z,99202.94
2023-06-23T09:53:48.882Z,99211.91
2023-06-23T09:56:18.659Z,99212.72
2023-06-23T09:58:48.781Z,99212.94
2023-06-23T10:01:20.327Z,99215.72
2023-06-23T10:03:55.546Z,99220.16
2023-06-23T10:06:28.191Z,99213.22
2023-06-23T10:08:56.941Z,99217.22
2023-06-23T10:11:35.974Z,99227.66
2023-06-23T10:14:08.119Z,99220.19
2023-06-23T10:16:36.574Z,99222.97
2023-06-23T10:19:04.667Z,99221.50
2023-06-23T10:21:32.107Z,99233.31
2023-06-23T10:24:02.013Z,99234.38
2023-06-23T10:26:32.660Z,99240.53
2023-06-23T10:29:02.514Z,99240.13
2023-06-23T10:31:31.577Z,99240.31
2023-06-23T10:34:04.563Z,99237.78
2023-06-23T10:36:39.629Z,99243.75
2023-06-23T10:39:09.425Z,99242.28
2023-06-23T10:41:36.440Z,99235.78
2023-06-23T10:44:04.673Z,99242.63
2023-06-23T10:46:31.618Z,99244.13
2023-06-23T10:48:59.073Z,99249.19
2023-06-23T10:51:26.507Z,99247.44
2023-06-23T10:54:06.270Z,99252.16
2023-06-23T10:56:37.007Z,99250.97
2023-06-23T10:59:18.954Z,99253.38
2023-06-23T11:02:01.084Z,99257.69
2023-06-23T11:04:32.737Z,99247.78
2023-06-23T11:07:13.941Z,99265.34
2023-06-23T11:09:45.950Z,99260.47
2023-06-23T11:12:31.134Z,99270.69
2023-06-23T11:15:13.907Z,99275.88
2023-06-23T11:17:42.180Z,99275.81
2023-06-23T11:20:33.200Z,99275.81
2023-06-23T11:23:11.252Z,99279.66
2023-06-23T11:25:52.918Z,99271.41
2023-06-23T11:28:39.888Z,99286.09
2023-06-23T11:31:15.490Z,99276.22
2023-06-23T11:33:44.554Z,99279.16
2023-06-23T11:36:15.245Z,99276.09
2023-06-23T11:38:43.601Z,99279.97
2023-06-23T11:41:13.918Z,99284.88
2023-06-23T11:43:42.417Z,99286.75
2023-06-23T11:46:11.833Z,99284.78
2023-06-23T11:48:40.911Z,99283.09
2023-06-23T11:51:09.600Z,99282.56
2023-06-23T11:53:37.760Z,99299.88
2023-06-23T11:56:04.657Z,99295.34
2023-06-23T11:58:35.850Z,99296.97
2023-06-23T12:01:03.299Z,99296.03
2023-06-23T12:03:37.320Z,99305.78
2023-06-23T12:06:04.066Z,99304.75
2023-06-23T12:08:30.838Z,99299.00
2023-06-23T12:10:57.600Z,99298.66
2023-06-23T12:13:24.278Z,99296.88
2023-06-23T12:15:54.320Z,99300.19
2023-06-23T12:18:24.755Z,99296.25
2023-06-23T12:20:51.405Z,99298.25
2023-06-23T12:23:18.657Z,99302.53
2023-06-23T12:25:49.165Z,99304.25
2023-06-23T12:28:16.594Z,99301.94
2023-06-23T12:30:45.272Z,99302.09
2023-06-23T12:33:21.847Z,99313.94
2023-06-23T12:35:56.550Z,99314.44
2023-06-23T12:38:24.851Z,99316.22
2023-06-23T12:40:52.175Z,99318.13
2023-06-23T12:43:20.161Z,99315.28
2023-06-23T12:46:04.983Z,99318.28
2023-06-23T12:48:31.869Z,99317.34
2023-06-23T12:50:59.629Z,99329.50
2023-06-23T12:53:26.282Z,99327.19
2023-06-23T12:55:52.985Z,99325.75
2023-06-23T12:58:19.719Z,99330.28
2023-06-23T13:00:46.474Z,99328.31
2023-06-23T13:03:16.370Z,99332.06
2023-06-23T13:05:44.631Z,99331.97
2023-06-23T13:08:11.824Z,99328.81
2023-06-23T13:10:38.505Z,99321.63
2023-06-23T13:13:05.227Z,99339.00
2023-06-23T13:15:33.733Z,99342.63
2023-06-23T13:18:01.298Z,99342.53
2023-06-23T13:26:49.276Z,99351.59
2023-06-23T13:29:18.211Z,99356.28
2023-06-23T13:31:45.308Z,99353.41
2023-06-23T13:34:12.132Z,99354.66
2023-06-23T13:36:39.507Z,99359.53
2023-06-23T13:39:06.351Z,99358.41
2023-06-23T13:41:33.047Z,99360.63
2023-06-23T13:43:59.820Z,99365.72
2023-06-23T13:46:26.614Z,99370.72
2023-06-23T13:48:53.289Z,99375.03
2023-06-23T13:53:46.868Z,99373.91
2023-06-23T13:56:13.946Z,99373.81
2023-06-23T13:58:41.010Z,99366.53
2023-06-23T14:01:07.843Z,99376.25
2023-06-23T14:03:34.589Z,99378.03
2023-06-23T14:06:04.789Z,99378.78
2023-06-23T14:08:36.631Z,99386.75
2023-06-23T14:11:03.644Z,99386.84
2023-06-23T14:13:30.477Z,99395.69
2023-06-23T14:15:57.237Z,99395.56
2023-06-23T14:18:23.930Z,99400.53
2023-06-23T14:20:50.580Z,99392.81
2023-06-23T14:23:17.301Z,99398.13
2023-06-23T14:25:44.221Z,99392.81
2023-06-23T14:28:11.017Z,99396.25
2023-06-23T14:30:37.745Z,99395.03
2023-06-23T14:33:04.592Z,99396.03
2023-06-23T14:35:32.659Z,99408.28
2023-06-23T14:38:00.077Z,99408.28
2023-06-23T14:40:26.737Z,99409.81
2023-06-23T14:42:53.835Z,99417.00
2023-06-23T14:45:20.527Z,99415.78
2023-06-23T14:47:47.400Z,99425.06
2023-06-23T14:50:14.059Z,99421.66
2023-06-23T14:52:41.138Z,99425.91
2023-06-23T14:55:08.217Z,99429.13
2023-06-23T14:57:36.027Z,99431.28
2023-06-23T15:00:03.022Z,99433.16
2023-06-23T15:02:30.867Z,99423.22
2023-06-23T15:04:57.683Z,99439.66
2023-06-23T15:07:24.420Z,99427.41
2023-06-23T15:09:51.523Z,99438.34
2023-06-23T15:12:18.198Z,99439.88
2023-06-23T15:14:45.327Z,99447.72
2023-06-23T15:17:12.045Z,99439.66
2023-06-23T15:19:41.731Z,99447.28
2023-06-23T15:22:10.128Z,99455.69
2023-06-23T15:24:37.843Z,99456.78
2023-06-23T15:27:06.018Z,99455.47
2023-06-23T15:29:32.697Z,99453.91
2023-06-23T15:32:00.127Z,99462.41
2023-06-23T15:34:28.540Z,99464.50
2023-06-23T15:36:56.436Z,99456.97
2023-06-23T15:39:30.142Z,99453.88
2023-06-23T15:41:57.154Z,99458.06
2023-06-23T15:44:25.439Z,99461.28
2023-06-23T15:46:52.796Z,99469.66
2023-06-23T15:49:20.639Z,99469.09
2023-06-23T15:51:47.447Z,99468.09
2023-06-23T15:54:14.173Z,99465.66
2023-06-23T15:56:40.996Z,99463.34
2023-06-23T15:59:08.091Z,99464.88
2023-06-23T16:01:34.899Z,99480.13
2023-06-23T16:04:01.800Z,99476.03
2023-06-23T16:06:29.438Z,99480.22
2023-06-23T16:08:56.312Z,99475.38
2023-06-23T16:11:23.027Z,99485.41
2023-06-23T16:13:49.648Z,99478.75
2023-06-23T16:16:16.565Z,99483.50
2023-06-23T16:18:43.361Z,99486.47
2023-06-23T16:21:10.118Z,99482.16
2023-06-23T16:23:36.970Z,99488.09
2023-06-23T16:26:03.743Z,99493.13
2023-06-23T16:28:30.664Z,99495.00
2023-06-23T16:30:57.490Z,99495.97
2023-06-23T16:33:24.294Z,99495.19
2023-06-23T16:35:51.085Z,99491.78
2023-06-23T16:38:19.530Z,99487.38
2023-06-23T16:40:46.259Z,99480.03
2023-06-23T16:43:12.955Z,99484.22
2023-06-23T16:45:39.633Z,99492.63
2023-06-23T16:48:06.539Z,99483.56
2023-06-23T16:50:34.756Z,99490.41
2023-06-23T16:53:02.575Z,99487.00
2023-06-23T16:55:29.371Z,99491.75
2023-06-23T16:57:56.090Z,99492.66
2023-06-23T17:00:23.092Z,99497.06
2023-06-23T17:02:50.122Z,99497.06
2023-06-23T17:05:17.206Z,99494.72
2023-06-23T17:07:43.965Z,99505.19
2023-06-23T17:10:11.418Z,99509.91
2023-06-23T17:12:38.665Z,99522.50
2023-06-23T17:15:06.132Z,99520.50
2023-06-23T17:17:32.928Z,99527.09
2023-06-23T17:19:59.786Z,99522.38
2023-06-23T17:22:26.553Z,99528.31
2023-06-23T17:24:53.959Z,99535.81
2023-06-23T17:27:20.730Z,99532.44
2023-06-23T17:29:47.542Z,99546.25
2023-06-23T17:32:14.576Z,99547.03
2023-06-23T17:34:41.438Z,99557.09
2023-06-23T17:37:08.228Z,99546.84
2023-06-23T17:39:35.022Z,99559.28
2023-06-23T17:42:01.782Z,99569.72
2023-06-23T17:44:28.565Z,99567.59
2023-06-23T17:46:55.845Z,99584.22
2023-06-23T17:49:22.812Z,99592.59
2023-06-23T17:51:49.656Z,99594.28
2023-06-23T17:54:16.383Z,99605.63
2023-06-23T17:56:42.998Z,99605.47
2023-06-23T17:59:10.695Z,99615.84
2023-06-23T18:01:38.329Z,99609.31
2023-06-23T18:04:06.071Z,99621.28
2023-06-23T18:06:32.922Z,99633.69
2023-06-23T18:08:59.689Z,99644.97
2023-06-23T18:11:26.520Z,99651.59
2023-06-23T18:13:53.356Z,99656.47
2023-06-23T18:16:20.424Z,99665.00
2023-06-23T18:18:47.128Z,99672.44
2023-06-23T18:21:13.795Z,99673.19
2023-06-23T18:23:40.534Z,99677.34
2023-06-23T18:26:07.275Z,99682.75
2023-06-23T18:28:34.579Z,99689.06
2023-06-23T18:31:01.343Z,99690.88
2023-06-23T18:33:28.081Z,99684.81
2023-06-23T18:35:54.717Z,99707.09
2023-06-23T18:38:21.455Z,99711.81
2023-06-23T18:40:48.206Z,99709.38
2023-06-23T18:43:14.899Z,99712.44
2023-06-23T18:45:41.671Z,99713.56
2023-06-23T18:48:08.397Z,99729.84
2023-06-23T18:50:35.424Z,99728.19
2023-06-23T18:53:02.313Z,99734.34
2023-06-23T18:55:28.958Z,99727.94
2023-06-23T18:57:56.181Z,99733.50
2023-06-23T19:00:22.933Z,99742.19
2023-06-23T19:02:51.056Z,99749.66
2023-06-23T19:05:17.900Z,99749.88
2023-06-23T19:07:44.559Z,99765.00
2023-06-23T19:10:11.293Z,99769.69
2023-06-23T19:12:38.025Z,99777.66
2023-06-23T19:15:05.195Z,99781.53
2023-06-23T19:17:31.971Z,99780.88
2023-06-23T19:20:01.827Z,99785.63
2023-06-23T19:22:31.152Z,99797.81
2023-06-23T19:24:57.854Z,99809.03
2023-06-23T19:27:24.540Z,99808.94
2023-06-23T19:29:51.278Z,99811.75
2023-06-23T19:32:17.924Z,99819.34
2023-06-23T19:34:44.613Z,99823.53
2023-06-23T19:37:11.680Z,99828.69
2023-06-23T19:39:50.851Z,99833.78
2023-06-23T19:42:25.062Z,99842.34
2023-06-23T19:44:54.157Z,99857.16
2023-06-23T19:47:22.165Z,99856.38
2023-06-23T19:49:49.039Z,99855.88
2023-06-23T19:52:15.869Z,99867.06
2023-06-23T19:54:42.672Z,99874.25
2023-06-23T19:57:09.332Z,99890.03
2023-06-23T19:59:35.992Z,99891.78
2023-06-23T20:02:02.879Z,99898.25
2023-06-23T20:04:29.749Z,99892.03
2023-06-23T20:06:56.536Z,99909.84
2023-06-23T20:09:23.389Z,99911.41
2023-06-23T20:11:50.049Z,99917.94
2023-06-23T20:14:16.787Z,99918.59
2023-06-23T20:16:43.444Z,99920.72
2023-06-23T20:19:10.836Z,99925.13
2023-06-23T20:21:37.545Z,99925.75
2023-06-23T20:24:04.356Z,99935.19
2023-06-23T20:26:31.028Z,99942.09
2023-06-23T20:28:57.859Z,99939.72
2023-06-23T20:31:24.962Z,99929.97
2023-06-23T20:33:51.609Z,99929.56
2023-06-23T20:36:18.364Z,99937.38
2023-06-23T20:38:48.119Z,99935.31
2023-06-23T20:41:14.840Z,99947.97
2023-06-23T20:43:41.440Z,99947.88
2023-06-23T20:46:08.207Z,99952.88
2023-06-23T20:48:40.488Z,99951.59
2023-06-23T20:51:07.286Z,99948.31
2023-06-23T20:53:33.976Z,99941.19
2023-06-23T20:56:00.596Z,99945.88
2023-06-23T20:58:27.351Z,99959.53
2023-06-23T21:00:54.160Z,99953.78
2023-06-23T21:03:20.893Z,99959.03
2023-06-23T21:05:47.623Z,99958.53
2023-06-23T21:08:14.277Z,99965.16
2023-06-23T21:10:41.194Z,99966.78
2023-06-23T21:13:08.152Z,99962.53
2023-06-23T21:15:35.003Z,99965.72
2023-06-23T21:18:02.273Z,99968.06
2023-06-23T21:20:29.133Z,99966.28
2023-06-23T21:22:56.157Z,99981.28
2023-06-23T21:25:23.491Z,99987.06
2023-06-23T21:27:50.413Z,99988.41
2023-06-23T21:30:17.335Z,99987.41
2023-06-23T21:32:44.816Z,99991.38
2023-06-23T21:35:13.192Z,99986.84
2023-06-23T21:37:40.798Z,99983.28
2023-06-23T21:40:09.785Z,99997.13
2023-06-23T21:42:36.719Z,99988.31
2023-06-23T21:45:04.098Z,99988.94
2023-06-23T21:47:31.821Z,99987.66
2023-06-23T21:49:58.663Z,99988.28
2023-06-23T21:52:25.633Z,100005.78
2023-06-23T21:54:52.426Z,100011.16
2023-06-23T21:57:19.145Z,100012.69
2023-06-23T21:59:45.964Z,100015.06
2023-06-23T22:02:12.994Z,100024.78
2023-06-23T22:04:39.657Z,100019.56
2023-06-23T22:07:06.481Z,100035.16
2023-06-23T22:09:33.430Z,100030.19
2023-06-23T22:12:00.274Z,100031.03
2023-06-23T22:14:27.374Z,100037.28
2023-06-23T22:16:54.710Z,100045.53
2023-06-23T22:19:22.042Z,100050.94
2023-06-23T22:21:49.189Z,100046.97
2023-06-23T22:24:16.463Z,100044.91
2023-06-23T22:26:43.770Z,100062.53
2023-06-23T22:29:10.447Z,100058.84
2023-06-23T22:31:37.285Z,100058.06
2023-06-23T22:34:04.032Z,100060.78
2023-06-23T22:36:36.217Z,100060.78
2023-06-23T22:39:04.413Z,100057.34
2023-06-23T22:41:31.320Z,100053.16
2023-06-23T22:43:58.050Z,100053.72
2023-06-23T22:46:24.953Z,100055.72
2023-06-23T22:48:51.905Z,100060.41
2023-06-23T22:51:18.578Z,100065.63
2023-06-23T22:53:45.222Z,100053.78
2023-06-23T22:56:12.801Z,100063.31
2023-06-23T22:58:39.835Z,100053.38
2023-06-23T23:01:06.645Z,100058.63
2023-06-23T23:03:33.411Z,100050.75
2023-06-23T23:06:00.335Z,100046.47
2023-06-23T23:08:27.053Z,100051.38
2023-06-23T23:10:54.770Z,100052.94
2023-06-23T23:13:21.583Z,100066.13
2023-06-23T23:15:48.396Z,100070.53
2023-06-23T23:18:15.441Z,100066.53
2023-06-23T23:20:44.113Z,100070.44
2023-06-23T23:23:10.934Z,100069.75
2023-06-23T23:25:41.053Z,100077.63
2023-06-23T23:28:11.455Z,100077.63
2023-06-23T23:30:38.569Z,100079.69
2023-06-23T23:33:05.928Z,100078.91
2023-06-23T23:35:33.970Z,100083.09
2023-06-23T23:38:00.757Z,100080.75
2023-06-23T23:40:27.527Z,100078.41
2023-06-23T23:42:54.193Z,100077.75
2023-06-23T23:45:20.979Z,100077.09
2023-06-23T23:47:47.838Z,100075.94
2023-06-23T23:50:15.210Z,100083.75
2023-06-23T23:52:41.987Z,100075.94
2023-06-23T23:55:09.472Z,100079.66
2023-06-23T23:57:36.290Z,100080.22
